Lome, Togo

7:13 PM GMT on September 02, 2014 (GMT +0000)
Tokoin | Change Station
CLOSE
Current Station
Airport
Location: Lome,
Elevation: 82 ft
Nearby Weather Stations

Elev 82 ft 6.17 °N, 1.25 °E | Updated 13 minutes ago

Partly Cloudy
Partly Cloudy
77 °F
Feels Like 77 °F
N
12
Wind Variable Wind from SSW

Today
High -- | Low -- °F
--% Chance of Precip.
Yesterday
High -- | Low -- °F
Precip. -- in
5:47 AM 6:01 PM
First Quarter, 54% visible
Pressure 29.92 in
Visibility 6.2 miles
Clouds Few 1000 ft
Dew Point 73 °F
Humidity 89%
Rainfall 0.00 in
Snow Depth Not available.
UV 0 out of 12
Pollen Not available.
Air Quality Not available.
Flu Activity Not available.
METAR DXXX 021900Z 21010KT 9999 FEW010 25/23 Q1013 NOSIG

More Conditions Fewer Conditions

Pressure 29.92 in
Visibility 6.2 miles
Clouds Few 1000 ft
Dew Point 73 °F
Humidity 89%
Rainfall 0.00 in
Snow Depth Not available.
UV 0 out of 12
Pollen Not available.
Air Quality Not available.
Flu Activity Not available.
METAR DXXX 021900Z 21010KT 9999 FEW010 25/23 Q1013 NOSIG

More Conditions Fewer Conditions

10-Day Weather Forecast

Almanac

Astronomy

Sep. 02, 2014 Rise Set
Actual Time 5:47 AM GMT 6:01 PM GMT
Civil Twilight 5:26 AM GMT 6:22 PM GMT
Nautical Twilight 5:02 AM GMT 6:46 PM GMT
Astronomical Twilight 4:37 AM GMT 7:11 PM GMT
Moon 11:55 AM GMT No Moon Set
Length of Visible Light 12h 55m
Length of Day
12h 13m
Tomorrow will be 0m 21s shorter.
First Quarter, 54% of the Moon is Illuminated
Today
First Quarter
Sep 8
Full
Sep 15
Last Quarter
Sep 24
New
Oct 1
First Quarter

Today's Extremes

Country Highs Country Lows

Community

WunderPhotos

Upload Photos

1,749,746 photos uploaded!

WunderBlogs® & News

By Dr. Jeff Masters
Director of Meteorology, Weather Underground
By Kari Strenfel
Meteorologist, Weather Underground
By Christopher C. Burt
Weather Historian, Weather Underground
September 2, 2014
September 2, 2014
September 2, 2014

Nearby

Snow Depth

Not available.

Earthquake Activity

City Distance Mag. Time & Date
No recent earthquake activity has been reported nearby.
Minimum magnitude displayed is 2.5.

Coastal Water Temperatures

Place Temperature
No Stations Reporting

Nearby Weather Stations